Terminal Aerodrome Forecast
Issued by NWS

Home | Current Version | Previous Version | Text Only | Print | Product List | Glossary On
Versions: 1 2 3 4 5 6 7 8 9 10 11 12 13 14 15
000
FTUS45 KTFX 311700
TAFHLN
TAF
KHLN 311739Z 3118/0118 35014KT 5SM -SN OVC020
      TEMPO 3118/3122 2SM -SN BR OVC012
     FM312200 35010KT P6SM OVC025
     FM010500 VRB03KT P6SM BKN050
     FM011200 VRB03KT 5SM BR OVC005
     FM011600 VRB03KT P6SM BKN250=

USA.gov is the U.S. government's official web portal to all federal, state and local government web resources and services.